Quad City International Airport (MLI)


Airport Diagram
Current Weather/Forecast (VFR Conditions)
METAR KMLI 271352Z 24007KT 10SM CLR M04/M11 A3009 RMK AO2 SLP199 T10441111
TAF KMLI 271136Z 2712/2812 23007KT P6SM BKN120 WS014/25038KT FM271600 27010KT P6SM BKN060 FM271900 30009KT P6SM BKN035 FM280100 33010KT P6SM SCT050

All Charts
General
Chart Name Download
AIRPORT DIAGRAM
TAKEOFF MINIMUMS
ALTERNATE MINIMUMS
HOT SPOT

Approaches
Chart Name Download
ILS OR LOC RWY 09
ILS OR LOC RWY 27
RNAV (GPS) RWY 09
RNAV (GPS) RWY 13
RNAV (GPS) RWY 27
RNAV (GPS) RWY 31